createdAt,value
2019-05-20T00:01:10.901Z,100617.66
2019-05-20T00:03:43.755Z,100612.06
2019-05-20T00:06:16.888Z,100612.23
2019-05-20T00:08:49.998Z,100622.13
2019-05-20T00:11:22.875Z,100622.98
2019-05-20T00:13:56.002Z,100615.51
2019-05-20T00:16:28.878Z,100615.51
2019-05-20T00:19:01.738Z,100614.49
2019-05-20T00:21:34.609Z,100607.06
2019-05-20T00:24:07.473Z,100602.66
2019-05-20T00:26:40.810Z,100602.48
2019-05-20T00:29:13.678Z,100613.72
2019-05-20T00:31:46.596Z,100613.72
2019-05-20T00:34:34.262Z,100605.06
2019-05-20T00:36:54.120Z,100609.47
2019-05-20T00:39:26.979Z,100617.61
2019-05-20T00:41:59.927Z,100625.59
2019-05-20T00:44:32.812Z,100616.96
2019-05-20T00:47:05.758Z,100616.96
2019-05-20T00:49:38.615Z,100614.23
2019-05-20T00:52:11.670Z,100614.23
2019-05-20T00:54:44.507Z,100610.50
2019-05-20T00:57:17.647Z,100611.69
2019-05-20T00:59:50.827Z,100620.16
2019-05-20T01:02:23.771Z,100623.73
2019-05-20T01:04:56.924Z,100623.22
2019-05-20T01:07:30.204Z,100623.22
2019-05-20T01:10:03.463Z,100622.72
2019-05-20T01:12:36.332Z,100623.74
2019-05-20T01:15:09.342Z,100629.34
2019-05-20T01:17:42.250Z,100624.25
2019-05-20T01:20:15.624Z,100624.76
2019-05-20T01:22:48.779Z,100624.76
2019-05-20T01:25:21.959Z,100620.83
2019-05-20T01:27:55.154Z,100620.83
2019-05-20T01:30:28.086Z,100620.69
2019-05-20T01:33:13.232Z,100622.20
2019-05-20T01:35:36.158Z,100622.20
2019-05-20T01:38:09.036Z,100624.06
2019-05-20T01:40:42.258Z,100628.48
2019-05-20T01:43:15.136Z,100628.65
2019-05-20T01:45:48.851Z,100625.09
2019-05-20T01:48:22.104Z,100630.69
2019-05-20T01:50:54.955Z,100633.57
2019-05-20T01:53:27.911Z,100632.05
2019-05-20T01:56:00.767Z,100639.69
2019-05-20T01:58:33.633Z,100639.69
2019-05-20T02:01:06.573Z,100641.02
2019-05-20T02:03:39.458Z,100644.09
2019-05-20T02:06:12.392Z,100644.09
2019-05-20T02:08:45.588Z,100634.09
2019-05-20T02:11:18.445Z,100643.59
2019-05-20T02:13:51.318Z,100645.09
2019-05-20T02:16:24.241Z,100644.41
2019-05-20T02:18:57.188Z,100640.16
2019-05-20T02:21:30.241Z,100632.70
2019-05-20T02:24:03.262Z,100641.36
2019-05-20T02:26:36.111Z,100639.31
2019-05-20T02:29:08.985Z,100643.22
2019-05-20T02:31:41.849Z,100643.22
2019-05-20T02:34:14.952Z,100639.66
2019-05-20T02:36:47.888Z,100639.66
2019-05-20T02:39:20.766Z,100641.02
2019-05-20T02:41:53.620Z,100633.41
2019-05-20T02:44:26.504Z,100633.41
2019-05-20T02:46:59.400Z,100629.50
2019-05-20T02:49:32.275Z,100624.23
2019-05-20T02:52:05.136Z,100624.23
2019-05-20T02:54:38.007Z,100630.18
2019-05-20T02:57:10.929Z,100636.45
2019-05-20T02:59:43.798Z,100637.13
2019-05-20T03:02:16.952Z,100635.95
2019-05-20T03:04:49.824Z,100637.63
2019-05-20T03:07:22.679Z,100637.63
2019-05-20T03:09:55.843Z,100644.77
2019-05-20T03:12:28.706Z,100644.77
2019-05-20T03:15:02.162Z,100643.06
2019-05-20T03:17:35.017Z,100642.39
2019-05-20T03:20:08.120Z,100642.39
2019-05-20T03:22:41.131Z,100646.13
2019-05-20T03:25:14.151Z,100644.77
2019-05-20T03:27:47.163Z,100643.23
2019-05-20T03:30:20.302Z,100647.31
2019-05-20T03:32:53.150Z,100647.31
2019-05-20T03:35:26.913Z,100644.42
2019-05-20T03:37:59.844Z,100655.46
2019-05-20T03:40:32.710Z,100655.46
2019-05-20T03:43:05.602Z,100652.41
2019-05-20T03:45:38.490Z,100654.78
2019-05-20T03:48:11.435Z,100657.67
2019-05-20T03:50:44.460Z,100652.73
2019-05-20T03:53:17.310Z,100652.73
2019-05-20T03:55:50.187Z,100653.59
2019-05-20T03:58:23.049Z,100656.31
2019-05-20T04:00:55.925Z,100656.31
2019-05-20T04:03:28.851Z,100657.16
2019-05-20T04:06:02.201Z,100664.97
2019-05-20T04:08:35.050Z,100664.97
2019-05-20T04:11:08.057Z,100670.55
2019-05-20T04:13:41.131Z,100670.55
2019-05-20T04:16:14.072Z,100671.41
2019-05-20T04:18:46.929Z,100670.19
2019-05-20T04:21:19.891Z,100670.19
2019-05-20T04:23:52.821Z,100669.84
2019-05-20T04:26:25.719Z,100662.55
2019-05-20T04:28:58.842Z,100662.55
2019-05-20T04:31:31.727Z,100668.15
2019-05-20T04:34:04.586Z,100660.00
2019-05-20T04:36:37.553Z,100669.64
2019-05-20T04:39:10.419Z,100670.66
2019-05-20T04:41:43.598Z,100670.66
2019-05-20T04:44:17.150Z,100664.36
2019-05-20T04:46:50.081Z,100659.27
2019-05-20T04:49:23.022Z,100662.96
2019-05-20T04:51:56.229Z,100661.09
2019-05-20T04:54:29.516Z,100661.09
2019-05-20T04:57:02.389Z,100656.60
2019-05-20T04:59:35.245Z,100661.78
2019-05-20T05:02:08.122Z,100671.91
2019-05-20T05:04:40.968Z,100671.91
2019-05-20T05:07:13.930Z,100665.91
2019-05-20T05:09:46.982Z,100659.56
2019-05-20T05:12:20.228Z,100661.90
2019-05-20T05:14:53.171Z,100661.23
2019-05-20T05:17:26.185Z,100660.47
2019-05-20T05:19:59.462Z,100664.31
2019-05-20T05:22:32.491Z,100664.31
2019-05-20T05:25:05.950Z,100664.48
2019-05-20T05:27:38.910Z,100664.48
2019-05-20T05:30:12.004Z,100664.28
2019-05-20T05:32:45.115Z,100673.56
2019-05-20T05:35:18.443Z,100673.56
2019-05-20T05:37:51.514Z,100677.70
2019-05-20T05:40:29.695Z,100683.97
2019-05-20T05:43:02.613Z,100687.84
2019-05-20T05:45:36.160Z,100687.84
2019-05-20T05:48:09.121Z,100679.72
2019-05-20T05:50:41.988Z,100679.72
2019-05-20T05:53:15.178Z,100679.05
2019-05-20T05:55:48.036Z,100677.90
2019-05-20T05:58:21.063Z,100677.90
2019-05-20T06:00:53.930Z,100675.51
2019-05-20T06:03:27.089Z,100678.20
2019-05-20T06:06:11.641Z,100676.33
2019-05-20T06:08:34.566Z,100687.38
2019-05-20T06:11:07.423Z,100692.52
2019-05-20T06:13:40.282Z,100692.52
2019-05-20T06:16:13.130Z,100691.64
2019-05-20T06:18:45.990Z,100691.13
2019-05-20T06:21:18.830Z,100700.81
2019-05-20T06:23:51.690Z,100699.25
2019-05-20T06:26:24.840Z,100700.16
2019-05-20T06:28:57.728Z,100700.16
2019-05-20T06:31:30.641Z,100697.16
2019-05-20T06:34:03.738Z,100709.88
2019-05-20T06:36:36.815Z,100709.88
2019-05-20T06:39:09.754Z,100709.44
2019-05-20T06:41:42.792Z,100712.17
2019-05-20T06:44:15.775Z,100709.71
2019-05-20T06:46:48.742Z,100718.94
2019-05-20T06:49:22.106Z,100718.94
2019-05-20T06:51:55.850Z,100714.32
2019-05-20T06:54:28.765Z,100720.31
2019-05-20T06:57:01.724Z,100721.87
2019-05-20T06:59:34.677Z,100721.35
2019-05-20T07:02:07.801Z,100724.55
2019-05-20T07:04:41.121Z,100726.18
2019-05-20T07:07:21.010Z,100727.82
2019-05-20T07:09:48.843Z,100725.88
2019-05-20T07:12:21.717Z,100724.42
2019-05-20T07:14:54.892Z,100728.59
2019-05-20T07:17:27.782Z,100735.84
2019-05-20T07:20:00.677Z,100735.84
2019-05-20T07:22:33.664Z,100735.61
2019-05-20T07:25:07.495Z,100739.61
2019-05-20T07:27:40.608Z,100746.90
2019-05-20T07:30:15.492Z,100743.77
2019-05-20T07:32:48.755Z,100744.20
2019-05-20T07:35:30.358Z,100742.84
2019-05-20T07:37:56.347Z,100742.92
2019-05-20T07:40:31.019Z,100742.92
2019-05-20T07:43:04.779Z,100749.37
2019-05-20T07:45:38.524Z,100749.83
2019-05-20T07:48:11.976Z,100751.56
2019-05-20T07:50:46.245Z,100751.72
2019-05-20T07:53:20.140Z,100754.65
2019-05-20T07:56:04.697Z,100755.32
2019-05-20T07:58:41.254Z,100755.32
2019-05-20T08:01:14.470Z,100758.88
2019-05-20T08:03:47.374Z,100755.83
2019-05-20T08:06:20.435Z,100755.50
2019-05-20T08:08:53.491Z,100758.30
2019-05-20T08:11:26.512Z,100758.30
2019-05-20T08:13:59.497Z,100755.20
2019-05-20T08:16:32.773Z,100758.30
2019-05-20T08:19:05.812Z,100760.38
2019-05-20T08:21:38.859Z,100764.38
2019-05-20T08:24:11.903Z,100764.38
2019-05-20T08:26:44.841Z,100771.28
2019-05-20T08:29:17.858Z,100772.82
2019-05-20T08:31:50.822Z,100772.82
2019-05-20T08:34:23.886Z,100772.44
2019-05-20T08:36:56.800Z,100769.06
2019-05-20T08:39:29.774Z,100767.94
2019-05-20T08:42:02.817Z,100767.94
2019-05-20T08:44:35.955Z,100775.20
2019-05-20T08:47:08.925Z,100768.73
2019-05-20T08:49:42.683Z,100773.30
2019-05-20T08:52:16.497Z,100770.32
2019-05-20T08:54:49.849Z,100770.32
2019-05-20T08:57:22.824Z,100772.31
2019-05-20T08:59:55.722Z,100772.31
2019-05-20T09:02:28.641Z,100773.41
2019-05-20T09:05:01.656Z,100778.22
2019-05-20T09:07:34.634Z,100782.14
2019-05-20T09:10:07.966Z,100782.14
2019-05-20T09:12:40.866Z,100795.98
2019-05-20T09:15:14.101Z,100794.49
2019-05-20T09:17:47.100Z,100794.49
2019-05-20T09:20:20.128Z,100791.00
2019-05-20T09:22:53.033Z,100790.91
2019-05-20T09:25:30.420Z,100790.91
2019-05-20T09:28:03.884Z,100784.36
2019-05-20T09:30:37.191Z,100795.88
2019-05-20T09:33:10.191Z,100788.60
2019-05-20T09:35:43.483Z,100796.22
2019-05-20T09:38:20.798Z,100796.22
2019-05-20T09:40:51.742Z,100790.02
2019-05-20T09:43:24.691Z,100790.02
2019-05-20T09:46:07.365Z,100791.50
2019-05-20T09:48:32.711Z,100796.69
2019-05-20T09:51:05.770Z,100796.69
2019-05-20T09:53:38.687Z,100797.67
2019-05-20T09:56:12.091Z,100795.23
2019-05-20T09:58:44.991Z,100804.01
2019-05-20T10:01:18.120Z,100804.01
2019-05-20T10:03:51.180Z,100806.34
2019-05-20T10:06:24.337Z,100803.78
2019-05-20T10:08:57.315Z,100812.45
2019-05-20T10:11:30.328Z,100812.45
2019-05-20T10:14:03.575Z,100815.41
2019-05-20T10:16:36.480Z,100816.14
2019-05-20T10:19:09.477Z,100807.53
2019-05-20T10:21:42.739Z,100820.03
2019-05-20T10:24:15.574Z,100820.18
2019-05-20T10:26:48.984Z,100820.18
2019-05-20T10:29:21.903Z,100822.25
2019-05-20T10:31:54.809Z,100821.24
2019-05-20T10:34:27.867Z,100821.78
2019-05-20T10:37:00.742Z,100819.34
2019-05-20T10:39:33.702Z,100833.25
2019-05-20T10:42:06.662Z,100830.19
2019-05-20T10:44:41.879Z,100828.76
2019-05-20T10:47:14.261Z,100831.70
2019-05-20T10:49:47.441Z,100838.28
2019-05-20T10:52:20.424Z,100838.28
2019-05-20T10:54:53.516Z,100839.80
2019-05-20T10:57:26.520Z,100833.91
2019-05-20T10:59:59.405Z,100831.50
2019-05-20T11:02:32.777Z,100830.78
2019-05-20T11:05:06.145Z,100839.83
2019-05-20T11:07:39.165Z,100839.83
2019-05-20T11:10:12.325Z,100841.30
2019-05-20T11:12:45.186Z,100824.39
2019-05-20T11:15:19.007Z,100826.38
2019-05-20T11:17:52.472Z,100826.38
2019-05-20T11:20:25.426Z,100829.27
2019-05-20T11:23:01.044Z,100833.97
2019-05-20T11:25:32.991Z,100835.31
2019-05-20T11:28:05.981Z,100832.33
2019-05-20T11:30:39.069Z,100833.54
2019-05-20T11:33:12.069Z,100833.94
2019-05-20T11:35:44.993Z,100827.30
2019-05-20T11:38:17.999Z,100833.87
2019-05-20T11:40:50.991Z,100840.02
2019-05-20T11:43:23.916Z,100831.21
2019-05-20T11:45:56.836Z,100831.71
2019-05-20T11:48:29.740Z,100826.16
2019-05-20T11:51:02.658Z,100822.68
2019-05-20T11:53:35.768Z,100822.45
2019-05-20T11:56:11.909Z,100811.66
2019-05-20T11:58:43.197Z,100818.99
2019-05-20T12:01:16.075Z,100818.99
2019-05-20T12:03:48.945Z,100823.13
2019-05-20T12:06:21.791Z,100823.13
2019-05-20T12:08:54.701Z,100832.64
2019-05-20T12:11:27.534Z,100821.14
2019-05-20T12:14:00.729Z,100816.47
2019-05-20T12:16:33.576Z,100811.98
2019-05-20T12:19:06.502Z,100818.39
2019-05-20T12:21:39.605Z,100818.39
2019-05-20T12:24:12.446Z,100814.94
2019-05-20T12:26:45.380Z,100818.53
2019-05-20T12:29:18.234Z,100818.53
2019-05-20T12:31:51.105Z,100809.48
2019-05-20T12:34:23.947Z,100809.48
2019-05-20T12:36:56.801Z,100816.70
2019-05-20T12:39:29.958Z,100817.17
2019-05-20T12:42:03.149Z,100817.25
2019-05-20T12:44:36.046Z,100814.38
2019-05-20T12:47:08.899Z,100814.38
2019-05-20T12:49:41.749Z,100818.25
2019-05-20T12:52:14.674Z,100812.72
2019-05-20T12:55:04.257Z,100814.88
2019-05-20T12:57:22.186Z,100817.00
2019-05-20T12:59:55.124Z,100817.00
2019-05-20T13:02:28.521Z,100821.88
2019-05-20T13:05:01.417Z,100823.73
2019-05-20T13:07:34.278Z,100823.73
2019-05-20T13:10:26.590Z,100827.58
2019-05-20T13:12:42.716Z,100827.58
2019-05-20T13:15:15.996Z,100826.38
2019-05-20T13:17:49.258Z,100826.38
2019-05-20T13:20:22.240Z,100830.23
2019-05-20T13:22:55.443Z,100828.03
2019-05-20T13:25:28.275Z,100827.03
2019-05-20T13:28:01.380Z,100820.53
2019-05-20T13:30:34.215Z,100817.53
2019-05-20T13:33:07.166Z,100829.33
2019-05-20T13:35:40.056Z,100829.94
2019-05-20T13:38:12.904Z,100829.94
2019-05-20T13:40:47.382Z,100830.17
2019-05-20T13:43:20.429Z,100826.05
2019-05-20T13:45:53.266Z,100813.58
2019-05-20T13:48:26.369Z,100820.86
2019-05-20T13:50:59.271Z,100814.45
2019-05-20T13:53:32.493Z,100806.94
2019-05-20T13:56:05.410Z,100806.94
2019-05-20T13:58:38.269Z,100802.72
2019-05-20T14:01:11.099Z,100809.81
2019-05-20T14:03:43.953Z,100813.91
2019-05-20T14:06:16.787Z,100813.91
2019-05-20T14:08:49.637Z,100805.11
2019-05-20T14:11:34.236Z,100806.45
2019-05-20T14:13:57.094Z,100798.52
2019-05-20T14:16:29.956Z,100798.52
2019-05-20T14:19:02.893Z,100797.04
2019-05-20T14:21:35.740Z,100799.96
2019-05-20T14:24:08.745Z,100803.94
2019-05-20T14:26:41.638Z,100799.47
2019-05-20T14:29:14.858Z,100805.45
2019-05-20T14:31:47.782Z,100805.45
2019-05-20T14:34:20.927Z,100804.02
2019-05-20T14:36:53.768Z,100798.38
2019-05-20T14:39:26.615Z,100798.02
2019-05-20T14:41:59.457Z,100798.02
2019-05-20T14:44:32.311Z,100799.22
2019-05-20T14:47:05.148Z,100801.03
2019-05-20T14:49:38.057Z,100802.70
2019-05-20T14:52:10.885Z,100801.34
2019-05-20T14:54:43.758Z,100798.38
2019-05-20T14:57:16.596Z,100803.56
2019-05-20T14:59:49.452Z,100803.56
2019-05-20T15:02:22.711Z,100805.47
2019-05-20T15:04:55.555Z,100798.36
2019-05-20T15:07:30.999Z,100803.70
2019-05-20T15:10:03.547Z,100812.13
2019-05-20T15:12:36.378Z,100795.67
2019-05-20T15:15:10.197Z,100799.04
2019-05-20T15:17:43.311Z,100799.04
2019-05-20T15:20:16.236Z,100804.55
2019-05-20T15:22:49.080Z,100804.55
2019-05-20T15:25:21.930Z,100810.37
2019-05-20T15:27:55.252Z,100805.34
2019-05-20T15:30:28.169Z,100810.18
2019-05-20T15:33:01.026Z,100808.52
2019-05-20T15:35:33.858Z,100810.63
2019-05-20T15:38:06.710Z,100821.99
2019-05-20T15:40:39.629Z,100822.50
2019-05-20T15:43:12.477Z,100828.67
2019-05-20T15:45:45.315Z,100828.67
2019-05-20T15:48:18.214Z,100830.32
2019-05-20T15:50:51.091Z,100832.92
2019-05-20T15:53:23.938Z,100825.38
2019-05-20T15:55:57.022Z,100825.38
2019-05-20T15:58:29.937Z,100828.06
2019-05-20T16:01:02.843Z,100832.93
2019-05-20T16:03:35.732Z,100825.42
2019-05-20T16:06:08.646Z,100822.95
2019-05-20T16:08:41.496Z,100812.53
2019-05-20T16:11:14.351Z,100803.51
2019-05-20T16:13:47.198Z,100810.66
2019-05-20T16:16:20.237Z,100809.07
2019-05-20T16:18:53.450Z,100808.83
2019-05-20T16:21:26.324Z,100807.34
2019-05-20T16:23:59.308Z,100807.34
2019-05-20T16:26:32.234Z,100801.58
2019-05-20T16:29:05.146Z,100810.13
2019-05-20T16:31:38.003Z,100810.13
2019-05-20T16:34:10.854Z,100799.77
2019-05-20T16:36:43.941Z,100798.61
2019-05-20T16:39:16.787Z,100798.61
2019-05-20T16:41:49.714Z,100798.95
2019-05-20T16:44:22.679Z,100808.34
2019-05-20T16:46:55.566Z,100808.44
2019-05-20T16:49:28.647Z,100808.44
2019-05-20T16:52:01.577Z,100820.42
2019-05-20T16:54:34.421Z,100818.73
2019-05-20T16:57:07.352Z,100826.64
2019-05-20T16:59:40.188Z,100827.02
2019-05-20T17:02:13.114Z,100832.81
2019-05-20T17:04:46.255Z,100832.81
2019-05-20T17:07:19.357Z,100833.62
2019-05-20T17:09:52.199Z,100833.62
2019-05-20T17:12:25.160Z,100837.86
2019-05-20T17:14:57.955Z,100835.03
2019-05-20T17:17:30.796Z,100838.41
2019-05-20T17:20:04.540Z,100847.92
2019-05-20T17:22:37.450Z,100848.89
2019-05-20T17:25:11.981Z,100848.89
2019-05-20T17:27:44.911Z,100853.33
2019-05-20T17:30:17.826Z,100853.53
2019-05-20T17:32:50.703Z,100858.80
2019-05-20T17:35:23.625Z,100858.80
2019-05-20T17:37:56.643Z,100861.91
2019-05-20T17:40:29.506Z,100861.91
2019-05-20T17:43:02.640Z,100867.19
2019-05-20T17:45:35.492Z,100863.89
2019-05-20T17:48:08.402Z,100861.66
2019-05-20T17:50:41.693Z,100861.66
2019-05-20T17:53:14.900Z,100855.05
2019-05-20T17:55:47.993Z,100860.05
2019-05-20T17:58:20.822Z,100866.58
2019-05-20T18:00:53.680Z,100866.58
2019-05-20T18:03:26.526Z,100870.33
2019-05-20T18:06:00.189Z,100875.84
2019-05-20T18:08:33.023Z,100888.91
2019-05-20T18:11:05.958Z,100888.78
2019-05-20T18:13:38.830Z,100888.78
2019-05-20T18:16:11.684Z,100884.87
2019-05-20T18:18:44.820Z,100894.98
2019-05-20T18:21:17.687Z,100888.72
2019-05-20T18:23:50.750Z,100888.72
2019-05-20T18:26:23.719Z,100887.78
2019-05-20T18:28:56.632Z,100887.78
2019-05-20T18:31:32.333Z,100891.49
2019-05-20T18:34:04.316Z,100892.59
2019-05-20T18:36:37.158Z,100892.52
2019-05-20T18:39:10.328Z,100897.94
2019-05-20T18:41:43.221Z,100902.70
2019-05-20T18:44:16.137Z,100901.53
2019-05-20T18:46:49.076Z,100901.53
2019-05-20T18:49:21.922Z,100902.77
2019-05-20T18:51:54.865Z,100902.25
2019-05-20T18:54:28.022Z,100899.52
2019-05-20T18:57:00.863Z,100901.89
2019-05-20T18:59:33.803Z,100900.99
2019-05-20T19:02:07.027Z,100902.12
2019-05-20T19:04:40.045Z,100906.32
2019-05-20T19:07:14.068Z,100906.32
2019-05-20T19:09:47.064Z,100910.63
2019-05-20T19:12:20.020Z,100910.63
2019-05-20T19:14:52.934Z,100907.66
2019-05-20T19:17:25.831Z,100915.16
2019-05-20T19:19:58.644Z,100919.15
2019-05-20T19:22:31.577Z,100915.06
2019-05-20T19:25:06.666Z,100920.73
2019-05-20T19:27:39.537Z,100920.73
2019-05-20T19:30:12.988Z,100923.64
2019-05-20T19:32:45.782Z,100928.95
2019-05-20T19:35:19.033Z,100930.73
2019-05-20T19:37:51.867Z,100927.36
2019-05-20T19:40:24.806Z,100922.01
2019-05-20T19:42:57.640Z,100927.64
2019-05-20T19:45:30.564Z,100927.64
2019-05-20T19:48:03.703Z,100933.28
2019-05-20T19:50:36.541Z,100939.02
2019-05-20T19:53:09.441Z,100946.56
2019-05-20T19:55:42.277Z,100946.56
2019-05-20T19:58:15.421Z,100949.63
2019-05-20T20:00:48.994Z,100952.03
2019-05-20T20:03:21.976Z,100951.69
2019-05-20T20:05:54.988Z,100960.20
2019-05-20T20:08:28.020Z,100971.09
2019-05-20T20:11:01.156Z,100971.81
2019-05-20T20:13:34.700Z,100978.11
2019-05-20T20:16:07.940Z,100979.36
2019-05-20T20:18:40.931Z,100979.36
2019-05-20T20:21:13.958Z,100982.94
2019-05-20T20:23:47.028Z,100985.52
2019-05-20T20:26:20.014Z,100985.52
2019-05-20T20:28:53.020Z,100985.34
2019-05-20T20:31:26.055Z,100990.62
2019-05-20T20:33:59.013Z,100986.88
2019-05-20T20:36:31.947Z,100983.15
2019-05-20T20:39:06.027Z,100987.23
2019-05-20T20:41:39.099Z,100987.23
2019-05-20T20:44:12.389Z,100994.20
2019-05-20T20:46:45.607Z,100999.97
2019-05-20T20:49:18.607Z,100995.05
2019-05-20T20:51:51.542Z,101000.66
2019-05-20T20:54:24.462Z,101009.67
2019-05-20T20:56:57.621Z,101001.67
2019-05-20T20:59:30.725Z,101001.67
2019-05-20T21:02:03.817Z,101014.27
2019-05-20T21:04:37.048Z,101016.64
2019-05-20T21:07:10.158Z,101018.19
2019-05-20T21:09:43.153Z,101018.19
2019-05-20T21:12:16.074Z,101014.96
2019-05-20T21:14:49.009Z,101014.96
2019-05-20T21:17:21.913Z,101008.84
2019-05-20T21:19:54.836Z,101003.70
2019-05-20T21:22:27.835Z,101004.23
2019-05-20T21:25:00.784Z,101004.23
2019-05-20T21:27:33.683Z,101005.24
2019-05-20T21:30:07.111Z,101000.30
2019-05-20T21:32:40.051Z,100991.63
2019-05-20T21:35:13.074Z,100991.98
2019-05-20T21:37:46.253Z,100985.36
2019-05-20T21:40:19.352Z,100987.04
2019-05-20T21:42:52.328Z,100991.29
2019-05-20T21:45:25.386Z,100991.29
2019-05-20T21:47:58.320Z,100982.61
2019-05-20T21:50:31.219Z,100982.61
2019-05-20T21:53:04.193Z,100993.66
2019-05-20T21:55:37.152Z,100999.80
2019-05-20T21:58:10.238Z,101001.47
2019-05-20T22:00:43.148Z,101005.24
2019-05-20T22:03:23.902Z,101016.11
2019-05-20T22:05:50.871Z,101015.95
2019-05-20T22:08:23.860Z,101015.95
2019-05-20T22:10:56.902Z,101008.64
2019-05-20T22:13:29.905Z,101016.11
2019-05-20T22:16:03.360Z,101018.33
2019-05-20T22:18:36.371Z,101014.92
2019-05-20T22:21:09.502Z,101014.92
2019-05-20T22:23:42.464Z,101015.62
2019-05-20T22:26:15.381Z,101015.41
2019-05-20T22:28:48.349Z,101015.41
2019-05-20T22:31:21.408Z,101017.13
2019-05-20T22:33:54.310Z,101010.16
2019-05-20T22:36:27.311Z,101010.33
2019-05-20T22:39:00.345Z,101010.33
2019-05-20T22:41:33.291Z,101017.45
2019-05-20T22:44:06.219Z,101017.45
2019-05-20T22:46:39.206Z,101017.12
2019-05-20T22:49:12.273Z,101015.94
2019-05-20T22:51:45.211Z,101015.09
2019-05-20T22:54:18.124Z,101017.63
2019-05-20T22:56:51.038Z,101017.63
2019-05-20T22:59:24.230Z,101023.94
2019-05-20T23:01:57.178Z,101023.94
2019-05-20T23:04:30.165Z,101024.64
2019-05-20T23:07:03.099Z,101025.66
2019-05-20T23:09:36.036Z,101022.77
2019-05-20T23:12:09.056Z,101026.33
2019-05-20T23:14:42.002Z,101030.92
2019-05-20T23:17:15.185Z,101030.41
2019-05-20T23:19:48.152Z,101024.28
2019-05-20T23:22:21.078Z,101022.08
2019-05-20T23:24:54.022Z,101015.97
2019-05-20T23:27:27.054Z,101012.22
2019-05-20T23:30:00.255Z,101008.14
2019-05-20T23:32:33.137Z,101003.73
2019-05-20T23:35:07.007Z,100997.27
2019-05-20T23:37:39.976Z,100992.16
2019-05-20T23:40:13.012Z,100992.16
2019-05-20T23:42:46.042Z,100989.95
2019-05-20T23:45:19.289Z,100987.40
2019-05-20T23:47:52.645Z,100986.88
2019-05-20T23:50:25.858Z,100989.61
2019-05-20T23:52:59.138Z,100986.22
2019-05-20T23:55:32.301Z,100977.89
2019-05-20T23:58:05.314Z,100974.83
